Sim-Planet VA

Sim-Planet Nouvel Horizon. By: Anthony Pay
Since 2020.




 METAR ET TAF INFORMATION
METAR FOR UUYY
ADDS - METARS form results

(1914 UTC 28 January 2022)
Data provider http://aviationweather.gov/metar/data/
 
METAR text: UUYY 281900Z 18004MPS CAVOK M13/M15 Q1012 R18/450345 NOSIG RMK QFE751/1001
Conditions at: UUYY (SYKTYVKAR , RU) observed 1900 UTC 28 January 2022
Temperature: -13.0°C ( 9°F)
Dewpoint: -15.0°C ( 5°F) [RH = 85%]
Pressure (altimeter): 29.88 inches Hg (1012.0 mb)
Winds: from the S (180 degrees) at 9 MPH (8 knots; 4.1 m/s)
Visibility: 6 or more miles (10+ km)
Ceiling: ceiling and visibility are OK
Clouds: unknown
Weather: no significant weather observed at this time

METAR text: UUYY 281830Z 18004MPS CAVOK M13/M15 Q1012 R18/450345 NOSIG RMK QFE751/1001
Conditions at: UUYY (SYKTYVKAR , RU) observed 1830 UTC 28 January 2022
Temperature: -13.0°C ( 9°F)
Dewpoint: -15.0°C ( 5°F) [RH = 85%]
Pressure (altimeter): 29.88 inches Hg (1012.0 mb)
Winds: from the S (180 degrees) at 9 MPH (8 knots; 4.1 m/s)
Visibility: 6 or more miles (10+ km)
Ceiling: ceiling and visibility are OK
Clouds: unknown
Weather: no significant weather observed at this time

Forecast for: UUYY (SYKTYVKAR , RU)
Text: TAF UUYY 281700Z 2818/2918 18003G10MPS 6000 -SN BKN016
Forecast period: 1800 UTC 28 January 2022 to 1800 UTC 29 January 2022
Forecast type: FROM: standard forecast or significant change
Winds: from the S (180 degrees) at 7 MPH (6 knots; 3.1 m/s)
gusting to 22 MPH (19 knots; 9.8 m/s)
Visibility: 4 miles (6 km)
Ceiling: 1600 feet AGL
Clouds: broken clouds at 1600 feet AGL
Weather: -SN  (light snow)
Text: TEMPO 2818/2824 3100 -SHSN BR BKN006 BKN011CB
Forecast period: 1800 UTC 28 January 2022 to 0000 UTC 29 January 2022
Forecast type: TEMPORARY: The following changes expected for less than half the time period
Visibility: 1.93 miles (3.11 km)
Ceiling: 600 feet AGL
Clouds: broken clouds at 600 feet AGL
broken clouds at 1100 feet AGL
Weather: -SHSN BR  (light snow showers, mist)

 AÉROPORT DE AÉROPORT

 INFORMATIONS DE PISTE
Piste 01 Longueur de la piste 8203 ft Largeur de la piste 164 ft
Élévation de la piste 335 ft Seuil de la piste déplacés 0 ft Runway heading 22
Piste 19 Longueur de la piste 8203 ft Largeur de la piste 164 ft
Élévation de la piste 308 ft Seuil de la piste déplacés 0 ft Runway heading 202

 AÉROPORT FRÉQUENCES
Type ARSA Nom SIVKAR KRU Féquence 118.1 MHZ
Type MISC Nom SIVKAR TRA Féquence 131.6 MHZ
Type PMSV Nom SIVKAR MET Féquence 126.6 MHZ
Type TWR Nom SIVKAR TAX Féquence 121.7 MHZ

 SIDA DE NAVIGATION
Type NDB Nom Syktyvkar Féquence 345 KHZ
Type NDB Nom Syktyvkar Féquence 345 KHZ

Nos Partenaires